createdAt,value
2019-05-01T00:02:20.498Z,35.00
2019-05-01T00:07:28.434Z,40.00
2019-05-01T00:12:31.771Z,43.33
2019-05-01T00:17:38.919Z,40.78
2019-05-01T00:22:45.395Z,40.56
2019-05-01T00:27:53.591Z,41.50
2019-05-01T00:32:57.522Z,43.00
2019-05-01T00:38:03.255Z,40.00
2019-05-01T00:43:10.277Z,39.13
2019-05-01T00:48:19.860Z,41.00
2019-05-01T00:53:28.658Z,39.38
2019-05-01T00:58:37.326Z,37.38
2019-05-01T01:03:44.388Z,38.00
2019-05-01T01:08:51.544Z,36.22
2019-05-01T01:14:01.118Z,36.00
2019-05-01T01:19:09.030Z,37.11
2019-05-01T01:24:13.571Z,32.50
2019-05-01T01:29:21.385Z,37.00
2019-05-01T01:34:30.140Z,35.00
2019-05-01T01:39:37.283Z,36.00
2019-05-01T01:44:47.404Z,35.78
2019-05-01T01:49:54.452Z,32.89
2019-05-01T01:55:04.467Z,34.78
2019-05-01T02:00:12.091Z,33.00
2019-05-01T02:05:19.934Z,35.11
2019-05-01T02:10:42.165Z,33.13
2019-05-01T02:15:38.867Z,35.63
2019-05-01T02:20:43.234Z,32.00
2019-05-01T02:25:51.330Z,36.00
2019-05-01T02:31:00.217Z,30.50
2019-05-01T02:36:09.308Z,31.33
2019-05-01T02:41:15.481Z,35.00
2019-05-01T02:46:22.104Z,36.63
2019-05-01T02:51:27.618Z,35.75
2019-05-01T02:56:33.476Z,35.38
2019-05-01T03:01:47.899Z,40.50
2019-05-01T03:06:52.920Z,31.75
2019-05-01T03:12:01.590Z,37.29
2019-05-01T03:17:05.863Z,35.75
2019-05-01T03:22:10.044Z,35.50
2019-05-01T03:27:18.202Z,39.00
2019-05-01T03:32:27.353Z,39.88
2019-05-01T03:37:34.504Z,36.75
2019-05-01T03:42:41.738Z,41.00
2019-05-01T03:47:49.563Z,39.00
2019-05-01T03:52:55.623Z,43.13
2019-05-01T03:58:04.672Z,40.00
2019-05-01T04:03:12.215Z,41.25
2019-05-01T04:08:19.577Z,39.00
2019-05-01T04:13:29.723Z,44.00
2019-05-01T04:18:38.186Z,40.75
2019-05-01T04:23:43.079Z,43.00
2019-05-01T04:28:49.693Z,43.13
2019-05-01T04:33:58.957Z,39.63
2019-05-01T04:39:06.773Z,46.00
2019-05-01T04:44:16.208Z,47.00
2019-05-01T04:49:23.534Z,48.63
2019-05-01T04:54:32.148Z,50.33
2019-05-01T04:59:39.288Z,46.63
2019-05-01T05:04:46.930Z,48.87
2019-05-01T05:09:56.080Z,48.00
2019-05-01T05:15:06.127Z,45.00
2019-05-01T05:20:15.900Z,50.00
2019-05-01T05:25:21.635Z,47.50
2019-05-01T05:30:30.739Z,48.25
2019-05-01T05:35:36.481Z,48.50
2019-05-01T05:40:45.407Z,48.25
2019-05-01T05:45:50.391Z,48.25
2019-05-01T05:50:56.098Z,48.00
2019-05-01T05:56:04.537Z,45.88
2019-05-01T06:01:09.577Z,50.00
2019-05-01T06:06:31.306Z,45.45
2019-05-01T06:11:39.208Z,43.75
2019-05-01T06:16:51.969Z,44.13
2019-05-01T06:21:55.159Z,43.87
2019-05-01T06:27:03.550Z,43.89
2019-05-01T06:32:10.902Z,43.63
2019-05-01T06:37:15.115Z,48.33
2019-05-01T06:42:21.799Z,42.00
2019-05-01T06:47:28.484Z,42.00
2019-05-01T06:52:59.819Z,38.50
2019-05-01T06:58:05.251Z,37.50
2019-05-01T07:03:13.617Z,41.50
2019-05-01T07:08:24.909Z,43.13
2019-05-01T07:13:29.459Z,43.50
2019-05-01T07:18:33.663Z,40.25
2019-05-01T07:23:42.252Z,41.88
2019-05-01T07:28:51.667Z,38.25
2019-05-01T07:34:01.000Z,38.75
2019-05-01T07:39:14.766Z,39.75
2019-05-01T07:44:21.287Z,38.38
2019-05-01T07:49:38.179Z,38.25
2019-05-01T07:54:47.203Z,36.25
2019-05-01T07:59:58.231Z,38.00
2019-05-01T08:05:09.910Z,38.00
2019-05-01T08:10:15.914Z,37.00
2019-05-01T08:15:27.653Z,35.38
2019-05-01T08:20:31.287Z,33.00
2019-05-01T08:25:35.099Z,34.25
2019-05-01T08:30:47.947Z,27.62
2019-05-01T08:35:49.987Z,30.00
2019-05-01T08:40:55.428Z,43.00
2019-05-01T08:46:01.874Z,29.75
2019-05-01T08:51:08.675Z,28.62
2019-05-01T08:56:22.008Z,22.18
2019-05-01T09:01:23.127Z,22.00
2019-05-01T09:06:34.599Z,21.25
2019-05-01T09:11:36.273Z,21.00
2019-05-01T09:16:42.554Z,23.12
2019-05-01T09:21:50.284Z,12.00
2019-05-01T09:26:53.899Z,8.33
2019-05-01T09:31:58.318Z,11.50
2019-05-01T09:37:03.853Z,8.50
2019-05-01T09:42:07.634Z,7.00
2019-05-01T09:47:15.278Z,9.33
2019-05-01T09:52:23.412Z,12.00
2019-05-01T09:57:29.691Z,11.43
2019-05-01T10:02:37.646Z,11.43
2019-05-01T10:07:41.337Z,10.67
2019-05-01T10:12:46.893Z,9.00
2019-05-01T10:17:53.203Z,8.20
2019-05-01T10:22:58.526Z,14.71
2019-05-01T10:28:12.280Z,18.73
2019-05-01T10:33:13.252Z,7.17
2019-05-01T10:38:17.678Z,12.00
2019-05-01T10:43:25.330Z,10.86
2019-05-01T10:48:28.946Z,12.00
2019-05-01T10:53:33.156Z,9.00
2019-05-01T10:58:37.450Z,9.00
2019-05-01T11:03:42.822Z,15.00
2019-05-01T11:08:47.966Z,13.00
2019-05-01T11:13:54.106Z,12.57
2019-05-01T11:19:00.367Z,11.50
2019-05-01T11:24:06.467Z,13.29
2019-05-01T11:29:10.018Z,9.67
2019-05-01T11:34:14.571Z,14.00
2019-05-01T11:39:18.306Z,9.50
2019-05-01T11:44:23.604Z,25.57
2019-05-01T11:49:28.013Z,11.83
2019-05-01T11:54:35.719Z,12.29
2019-05-01T11:59:39.211Z,12.00
2019-05-01T12:04:45.348Z,20.00
2019-05-01T12:09:50.719Z,10.00
2019-05-01T12:14:56.292Z,10.00
2019-05-01T12:20:01.197Z,13.00
2019-05-01T12:25:08.878Z,8.50
2019-05-01T12:30:17.792Z,16.71
2019-05-01T12:35:23.616Z,10.71
2019-05-01T12:40:26.639Z,9.20
2019-05-01T12:45:30.348Z,18.00
2019-05-01T12:50:35.625Z,10.14
2019-05-01T12:55:40.899Z,10.17
2019-05-01T13:00:48.366Z,12.33
2019-05-01T13:05:53.290Z,9.33
2019-05-01T13:11:02.755Z,18.62
2019-05-01T13:16:07.471Z,4.00
2019-05-01T13:21:15.410Z,9.30
2019-05-01T13:26:21.619Z,8.17
2019-05-01T13:31:29.465Z,11.33
2019-05-01T13:36:34.343Z,10.67
2019-05-01T13:41:40.295Z,7.00
2019-05-01T13:46:47.210Z,8.00
2019-05-01T13:51:55.638Z,13.00
2019-05-01T13:57:01.644Z,7.33
2019-05-01T14:02:07.067Z,8.67
2019-05-01T14:07:16.563Z,6.83
2019-05-01T14:12:17.696Z,7.83
2019-05-01T14:17:21.322Z,9.00
2019-05-01T14:22:26.041Z,7.60
2019-05-01T14:27:29.742Z,7.67
2019-05-01T14:32:35.062Z,13.86
2019-05-01T14:37:42.159Z,12.83
2019-05-01T14:42:45.030Z,6.20
2019-05-01T14:47:51.180Z,10.71
2019-05-01T14:52:54.802Z,7.67
2019-05-01T14:58:02.924Z,2.60
2019-05-01T15:03:07.326Z,7.00
2019-05-01T15:08:10.884Z,9.17
2019-05-01T15:13:15.434Z,8.00
2019-05-01T15:18:19.696Z,9.67
2019-05-01T15:23:27.447Z,12.57
2019-05-01T15:28:33.530Z,14.00
2019-05-01T15:33:37.022Z,13.00
2019-05-01T15:38:41.463Z,8.33
2019-05-01T15:43:45.072Z,8.50
2019-05-01T15:48:50.140Z,6.00
2019-05-01T15:53:55.378Z,10.71
2019-05-01T15:58:58.898Z,10.00
2019-05-01T16:04:03.556Z,8.17
2019-05-01T16:09:08.382Z,13.00
2019-05-01T16:14:15.701Z,7.00
2019-05-01T16:19:20.679Z,8.00
2019-05-01T16:24:25.583Z,12.00
2019-05-01T16:29:33.117Z,20.37
2019-05-01T16:34:39.011Z,12.71
2019-05-01T16:39:44.914Z,14.14
2019-05-01T16:44:54.042Z,21.37
2019-05-01T16:49:58.963Z,10.71
2019-05-01T16:55:04.359Z,11.67
2019-05-01T17:00:11.949Z,8.00
2019-05-01T17:05:17.027Z,9.43
2019-05-01T17:10:22.875Z,15.71
2019-05-01T17:15:28.806Z,14.29
2019-05-01T17:20:34.791Z,14.57
2019-05-01T17:25:39.818Z,20.25
2019-05-01T17:30:45.899Z,10.83
2019-05-01T17:35:51.903Z,10.29
2019-05-01T17:40:56.166Z,10.00
2019-05-01T17:46:00.630Z,11.00
2019-05-01T17:51:04.518Z,11.33
2019-05-01T17:56:15.349Z,8.30
2019-05-01T18:01:27.567Z,18.25
2019-05-01T18:06:31.310Z,11.43
2019-05-01T18:11:34.763Z,20.50
2019-05-01T18:16:43.486Z,12.29
2019-05-01T18:21:51.921Z,19.50
2019-05-01T18:26:58.186Z,20.86
2019-05-01T18:32:08.209Z,17.86
2019-05-01T18:37:11.213Z,15.60
2019-05-01T18:42:14.603Z,21.50
2019-05-01T18:47:18.231Z,25.00
2019-05-01T18:52:23.248Z,15.00
2019-05-01T18:57:26.587Z,17.50
2019-05-01T19:02:32.519Z,14.00
2019-05-01T19:07:39.196Z,13.00
2019-05-01T19:12:44.391Z,20.43
2019-05-01T19:17:50.448Z,13.00
2019-05-01T19:22:54.272Z,15.20
2019-05-01T19:28:00.643Z,22.75
2019-05-01T19:33:04.458Z,25.50
2019-05-01T19:38:07.440Z,20.00
2019-05-01T19:43:12.932Z,18.00
2019-05-01T19:48:16.540Z,13.00
2019-05-01T19:53:22.080Z,19.00
2019-05-01T19:58:26.638Z,17.00
2019-05-01T20:03:36.416Z,20.29
2019-05-01T20:08:38.319Z,21.12
2019-05-01T20:13:45.454Z,27.29
2019-05-01T20:18:49.709Z,20.00
2019-05-01T20:23:55.801Z,24.37
2019-05-01T20:29:01.791Z,24.12
2019-05-01T20:34:11.939Z,23.75
2019-05-01T20:39:15.384Z,22.50
2019-05-01T20:44:23.920Z,18.71
2019-05-01T20:49:28.820Z,23.50
2019-05-01T20:54:32.954Z,13.60
2019-05-01T20:59:40.420Z,20.29
2019-05-01T21:04:47.300Z,14.38
2019-05-01T21:09:57.905Z,16.71
2019-05-01T21:15:03.588Z,20.62
2019-05-01T21:20:10.749Z,17.57
2019-05-01T21:25:14.734Z,18.00
2019-05-01T21:30:20.578Z,22.00
2019-05-01T21:35:27.063Z,19.62
2019-05-01T21:40:40.349Z,21.75
2019-05-01T21:45:43.225Z,21.62
2019-05-01T21:50:53.624Z,18.12
2019-05-01T21:56:02.106Z,22.00
2019-05-01T22:01:06.030Z,21.75
2019-05-01T22:06:11.293Z,25.75
2019-05-01T22:11:18.422Z,25.62
2019-05-01T22:16:25.543Z,26.50
2019-05-01T22:21:31.884Z,26.87
2019-05-01T22:26:38.848Z,29.00
2019-05-01T22:31:48.416Z,24.75
2019-05-01T22:36:58.508Z,27.89
2019-05-01T22:42:05.617Z,27.00
2019-05-01T22:47:14.747Z,24.50
2019-05-01T22:52:16.106Z,22.00
2019-05-01T22:57:24.227Z,26.00
2019-05-01T23:02:34.084Z,27.67
2019-05-01T23:07:43.013Z,30.62
2019-05-01T23:12:50.908Z,30.22
2019-05-01T23:17:59.508Z,28.00
2019-05-01T23:23:06.342Z,30.50
2019-05-01T23:28:14.990Z,23.25
2019-05-01T23:33:23.804Z,27.62
2019-05-01T23:38:28.247Z,23.00
2019-05-01T23:43:33.446Z,25.00
2019-05-01T23:48:37.145Z,24.00
2019-05-01T23:53:44.265Z,21.00
2019-05-01T23:58:46.478Z,21.67
